createdAt,value
2022-09-04T00:02:41.102Z,97008.41
2022-09-04T00:07:00.080Z,96969.38
2022-09-04T00:11:44.734Z,97007.00
2022-09-04T00:15:57.099Z,97007.84
2022-09-04T00:20:46.299Z,97016.19
2022-09-04T00:24:53.796Z,97010.66
2022-09-04T00:29:00.905Z,97018.91
2022-09-04T00:33:09.695Z,97010.50
2022-09-04T00:37:16.531Z,96986.50
2022-09-04T00:41:46.033Z,96995.69
2022-09-04T00:46:05.354Z,97015.94
2022-09-04T00:50:43.170Z,97020.84
2022-09-04T00:55:19.542Z,97027.59
2022-09-04T00:59:50.594Z,97034.72
2022-09-04T01:04:31.860Z,97045.47
2022-09-04T01:08:47.380Z,97038.38
2022-09-04T01:13:16.892Z,97043.06
2022-09-04T01:17:34.099Z,97055.31
2022-09-04T01:21:52.406Z,97046.59
2022-09-04T01:26:28.113Z,97012.19
2022-09-04T01:30:25.993Z,97047.47
2022-09-04T01:35:26.243Z,97056.44
2022-09-04T01:39:29.252Z,97054.72
2022-09-04T01:43:26.524Z,97061.81
2022-09-04T01:47:46.544Z,97056.69
2022-09-04T01:52:12.986Z,97061.25
2022-09-04T01:56:32.714Z,97053.91
2022-09-04T02:00:53.715Z,97007.97
2022-09-04T02:05:09.828Z,97047.00
2022-09-04T02:09:22.511Z,97057.91
2022-09-04T02:13:53.861Z,97069.88
2022-09-04T02:18:16.694Z,97066.34
2022-09-04T02:22:40.040Z,97073.91
2022-09-04T02:27:03.971Z,97069.97
2022-09-04T02:31:20.174Z,97064.22
2022-09-04T02:35:34.909Z,97055.06
2022-09-04T02:40:25.050Z,97077.91
2022-09-04T02:45:10.627Z,97076.16
2022-09-04T02:49:25.063Z,97070.00
2022-09-04T02:54:04.374Z,97076.72
2022-09-04T02:58:44.221Z,97060.34
2022-09-04T03:03:07.126Z,97055.25
2022-09-04T03:07:18.397Z,97062.78
2022-09-04T03:11:36.712Z,97081.50
2022-09-04T03:16:10.316Z,97057.97
2022-09-04T03:20:23.379Z,97055.81
2022-09-04T03:24:34.654Z,97080.91
2022-09-04T03:29:15.246Z,97089.16
2022-09-04T03:33:29.390Z,97077.44
2022-09-04T03:37:55.718Z,97083.44
2022-09-04T03:42:30.702Z,97066.47
2022-09-04T03:46:36.704Z,97100.22
2022-09-04T03:51:15.349Z,97109.03
2022-09-04T03:55:48.084Z,97094.31
2022-09-04T04:00:10.203Z,97100.69
2022-09-04T04:04:48.892Z,97092.19
2022-09-04T04:09:22.368Z,97090.59
2022-09-04T04:14:07.249Z,97111.13
2022-09-04T04:18:39.198Z,97118.41
2022-09-04T04:23:23.009Z,97110.84
2022-09-04T04:27:38.750Z,97094.75
2022-09-04T04:32:26.480Z,97122.88
2022-09-04T04:36:51.887Z,97129.09
2022-09-04T04:41:14.702Z,97081.56
2022-09-04T04:45:51.985Z,97082.97
2022-09-04T04:50:16.217Z,97135.47
2022-09-04T04:54:35.130Z,97149.47
2022-09-04T04:58:58.922Z,97137.34
2022-09-04T05:03:43.203Z,97153.19
2022-09-04T05:08:08.180Z,97148.94
2022-09-04T05:12:29.287Z,97152.91
2022-09-04T05:16:52.227Z,97124.09
2022-09-04T05:21:21.906Z,97164.34
2022-09-04T05:25:39.170Z,97171.56
2022-09-04T05:30:12.591Z,97167.84
2022-09-04T05:34:27.749Z,97205.53
2022-09-04T05:38:47.044Z,97166.84
2022-09-04T05:43:03.952Z,97213.72
2022-09-04T05:47:30.794Z,97219.28
2022-09-04T05:51:43.499Z,97231.59
2022-09-04T05:56:25.352Z,97235.72
2022-09-04T06:00:22.617Z,97203.34
2022-09-04T06:05:11.070Z,97221.63
2022-09-04T06:09:46.778Z,97229.75
2022-09-04T06:14:23.210Z,97237.94
2022-09-04T06:18:32.126Z,97269.25
2022-09-04T06:22:49.505Z,97272.69
2022-09-04T06:27:43.109Z,97219.81
2022-09-04T06:32:08.177Z,97275.59
2022-09-04T06:36:42.306Z,97270.16
2022-09-04T06:41:00.851Z,97262.22
2022-09-04T06:45:09.998Z,97268.88
2022-09-04T06:49:59.306Z,97267.59
2022-09-04T06:54:43.678Z,97291.34
2022-09-04T06:59:07.203Z,97293.44
2022-09-04T07:03:48.590Z,97302.38
2022-09-04T07:08:40.754Z,97290.75
2022-09-04T07:13:14.064Z,97300.16
2022-09-04T07:17:46.042Z,97303.69
2022-09-04T07:22:06.996Z,97310.50
2022-09-04T07:26:38.758Z,97320.00
2022-09-04T07:30:49.929Z,97307.09
2022-09-04T07:35:03.052Z,97291.31
2022-09-04T07:39:25.523Z,97324.69
2022-09-04T07:43:42.465Z,97271.47
2022-09-04T07:48:32.098Z,97334.06
2022-09-04T07:52:42.907Z,97308.91
2022-09-04T07:57:12.669Z,97298.56
2022-09-04T08:01:42.682Z,97352.75
2022-09-04T08:05:49.575Z,97354.38
2022-09-04T08:10:10.731Z,97356.06
2022-09-04T08:14:19.858Z,97360.13
2022-09-04T08:19:29.685Z,97354.84
2022-09-04T08:23:47.398Z,97378.13
2022-09-04T08:28:24.573Z,97385.28
2022-09-04T08:33:10.201Z,97386.06
2022-09-04T08:37:32.871Z,97354.28
2022-09-04T08:42:00.805Z,97387.03
2022-09-04T08:46:11.833Z,97380.91
2022-09-04T08:50:51.754Z,97392.25
2022-09-04T08:55:01.926Z,97393.69
2022-09-04T08:59:52.606Z,97381.03
2022-09-04T09:04:27.442Z,97394.44
2022-09-04T09:09:01.222Z,97394.78
2022-09-04T09:14:01.836Z,97389.00
2022-09-04T09:18:48.930Z,97390.91
2022-09-04T09:23:18.714Z,97390.91
2022-09-04T09:27:37.175Z,97394.22
2022-09-04T09:32:29.045Z,97396.25
2022-09-04T09:37:06.837Z,97384.38
2022-09-04T09:41:51.898Z,97387.69
2022-09-04T09:46:08.416Z,97386.31
2022-09-04T09:50:40.179Z,97385.34
2022-09-04T09:55:18.513Z,97371.22
2022-09-04T09:59:49.682Z,97377.00
2022-09-04T10:04:46.182Z,97383.88
2022-09-04T10:09:39.944Z,97347.13
2022-09-04T10:14:25.444Z,97379.19
2022-09-04T10:18:59.816Z,97382.03
2022-09-04T10:23:05.763Z,97386.00
2022-09-04T10:27:15.347Z,97379.56
2022-09-04T10:31:38.565Z,97380.06
2022-09-04T10:35:44.280Z,97378.56
2022-09-04T10:40:29.832Z,97364.22
2022-09-04T10:45:00.173Z,97370.56
2022-09-04T10:49:59.807Z,97371.44
2022-09-04T10:54:17.071Z,97368.00
2022-09-04T10:58:59.023Z,97367.28
2022-09-04T11:03:11.386Z,97361.03
2022-09-04T11:07:36.913Z,97348.38
2022-09-04T11:11:49.317Z,97346.28
2022-09-04T11:16:05.542Z,97348.59
2022-09-04T11:20:39.997Z,97334.84
2022-09-04T11:25:13.650Z,97346.41
2022-09-04T11:29:46.680Z,97343.66
2022-09-04T11:34:40.193Z,97340.44
2022-09-04T11:39:14.636Z,97353.72
2022-09-04T11:43:56.934Z,97336.63
2022-09-04T11:48:22.929Z,97338.09
2022-09-04T11:53:26.335Z,97340.59
2022-09-04T11:58:19.408Z,97349.13
2022-09-04T12:02:57.497Z,97343.31
2022-09-04T12:07:12.520Z,97328.81
2022-09-04T12:12:00.478Z,97351.25
2022-09-04T12:16:44.476Z,97344.34
2022-09-04T12:21:18.255Z,97348.38
2022-09-04T12:25:36.498Z,97350.94
2022-09-04T12:30:05.236Z,97344.00
2022-09-04T12:34:59.858Z,97336.59
2022-09-04T12:39:43.100Z,97337.09
2022-09-04T12:44:01.760Z,97336.31
2022-09-04T12:48:33.050Z,97336.34
2022-09-04T12:53:19.270Z,97341.16
2022-09-04T12:57:38.471Z,97340.53
2022-09-04T13:02:04.434Z,97347.91
2022-09-04T13:06:23.098Z,97348.59
2022-09-04T13:10:34.101Z,97344.63
2022-09-04T13:14:48.238Z,97330.97
2022-09-04T13:19:18.192Z,97338.06
2022-09-04T13:23:54.728Z,97334.16
2022-09-04T13:28:25.546Z,97345.56
2022-09-04T13:32:35.754Z,97343.47
2022-09-04T13:37:04.558Z,97345.72
2022-09-04T13:41:34.635Z,97342.44
2022-09-04T13:45:59.331Z,97346.47
2022-09-04T13:50:10.103Z,97318.22
2022-09-04T13:54:36.748Z,97319.91
2022-09-04T13:58:51.530Z,97334.94
2022-09-04T14:02:56.692Z,97318.78
2022-09-04T14:07:08.008Z,97338.34
2022-09-04T14:11:34.191Z,97344.22
2022-09-04T14:16:03.878Z,97338.75
2022-09-04T14:20:23.498Z,97319.50
2022-09-04T14:24:33.038Z,97335.16
2022-09-04T14:28:51.478Z,97338.41
2022-09-04T14:33:07.727Z,97328.66
2022-09-04T14:37:42.704Z,97329.91
2022-09-04T14:42:23.729Z,97344.38
2022-09-04T14:46:35.067Z,97338.25
2022-09-04T14:50:51.978Z,97334.97
2022-09-04T14:54:55.639Z,97347.91
2022-09-04T14:59:11.186Z,97337.16
2022-09-04T15:03:18.663Z,97334.63
2022-09-04T15:07:53.620Z,97336.94
2022-09-04T15:12:20.892Z,97334.63
2022-09-04T15:16:32.425Z,97337.81
2022-09-04T15:20:33.024Z,97328.09
2022-09-04T15:24:58.537Z,97348.97
2022-09-04T15:29:17.517Z,97339.28
2022-09-04T15:33:20.056Z,97332.28
2022-09-04T15:37:28.751Z,97338.47
2022-09-04T15:41:34.831Z,97343.25
2022-09-04T15:46:03.159Z,97338.19
2022-09-04T15:50:22.065Z,97335.94
2022-09-04T15:54:31.839Z,97343.19
2022-09-04T15:58:51.228Z,97334.75
2022-09-04T16:03:23.229Z,97344.66
2022-09-04T16:07:46.622Z,97339.78
2022-09-04T16:12:04.343Z,97328.97
2022-09-04T16:16:18.164Z,97328.31
2022-09-04T16:20:45.307Z,97341.34
2022-09-04T16:24:47.691Z,97346.94
2022-09-04T16:28:56.021Z,97337.94
2022-09-04T16:32:53.116Z,97325.91
2022-09-04T16:37:10.477Z,97330.00
2022-09-04T16:41:25.935Z,97337.81
2022-09-04T16:45:39.888Z,97347.88
2022-09-04T16:50:05.993Z,97328.06
2022-09-04T16:54:35.558Z,97343.84
2022-09-04T16:58:42.612Z,97345.13
2022-09-04T17:02:48.830Z,97352.00
2022-09-04T17:07:02.997Z,97350.91
2022-09-04T17:11:22.830Z,97349.22
2022-09-04T17:15:37.677Z,97355.44
2022-09-04T17:19:34.858Z,97348.34
2022-09-04T17:28:56.809Z,97351.78
2022-09-04T17:29:12.480Z,97358.13
2022-09-04T17:40:35.546Z,97332.09
2022-09-04T17:40:35.593Z,97296.59
2022-09-04T17:42:15.694Z,97346.56
2022-09-04T17:46:39.898Z,97367.50
2022-09-04T17:50:48.146Z,97367.44
2022-09-04T17:54:49.262Z,97374.56
2022-09-04T17:58:49.965Z,97375.09
2022-09-04T18:03:25.727Z,97388.53
2022-09-04T18:08:07.732Z,97386.75
2022-09-04T18:12:21.510Z,97397.63
2022-09-04T18:16:26.176Z,97407.47
2022-09-04T18:20:43.756Z,97406.72
2022-09-04T18:24:55.222Z,97409.44
2022-09-04T18:30:26.100Z,97404.88
2022-09-04T18:37:18.384Z,97413.00
2022-09-04T18:39:08.929Z,97415.84
2022-09-04T18:50:21.946Z,97429.75
2022-09-04T18:50:29.200Z,97439.56
2022-09-04T18:52:30.007Z,97428.47
2022-09-04T18:56:45.160Z,97438.84
2022-09-04T19:00:57.752Z,97449.91
2022-09-04T19:05:10.204Z,97410.50
2022-09-04T19:09:19.830Z,97443.06
2022-09-04T19:13:36.185Z,97430.19
2022-09-04T19:17:40.630Z,97440.84
2022-09-04T19:21:58.191Z,97438.25
2022-09-04T19:26:07.479Z,97447.06
2022-09-04T19:30:18.942Z,97457.13
2022-09-04T19:34:48.731Z,97463.94
2022-09-04T19:46:06.281Z,97448.31
2022-09-04T19:46:25.703Z,97469.56
2022-09-04T19:48:23.494Z,97467.63
2022-09-04T19:53:24.171Z,97459.31
2022-09-04T19:57:32.191Z,97465.72
2022-09-04T20:01:53.273Z,97434.84
2022-09-04T20:06:22.446Z,97454.44
2022-09-04T20:10:45.365Z,97377.31
2022-09-04T20:15:13.945Z,97467.31
2022-09-04T20:19:28.371Z,97459.09
2022-09-04T20:23:52.525Z,97452.19
2022-09-04T20:28:40.210Z,97453.03
2022-09-04T20:33:06.499Z,97468.03
2022-09-04T20:37:23.096Z,97443.31
2022-09-04T20:41:34.729Z,97428.69
2022-09-04T20:46:52.686Z,97452.97
2022-09-04T20:52:52.414Z,97437.53
2022-09-04T20:55:22.894Z,97461.09
2022-09-04T21:03:08.847Z,97463.06
2022-09-04T21:04:37.657Z,97470.94
2022-09-04T21:08:57.172Z,97479.59
2022-09-04T21:13:14.406Z,97457.47
2022-09-04T21:17:39.050Z,97428.69
2022-09-04T21:22:32.560Z,97478.88
2022-09-04T21:27:02.068Z,97482.91
2022-09-04T21:31:24.481Z,97480.31
2022-09-04T21:35:34.034Z,97503.66
2022-09-04T21:40:01.984Z,97504.69
2022-09-04T21:44:52.143Z,97495.06
2022-09-04T21:49:55.766Z,97514.97
2022-09-04T21:54:37.681Z,97518.19
2022-09-04T22:02:28.231Z,97518.31
2022-09-04T22:04:06.049Z,97511.41
2022-09-04T22:13:26.663Z,97510.31
2022-09-04T22:13:49.445Z,97513.34
2022-09-04T22:17:56.344Z,97519.59
2022-09-04T22:22:11.503Z,97514.19
2022-09-04T22:26:33.430Z,97519.88
2022-09-04T22:30:42.127Z,97515.81
2022-09-04T22:35:00.817Z,97526.13
2022-09-04T22:39:38.688Z,97501.44
2022-09-04T22:43:46.525Z,97504.16
2022-09-04T22:48:31.465Z,97518.69
2022-09-04T22:53:06.802Z,97521.56
2022-09-04T22:57:15.133Z,97514.16
2022-09-04T23:01:47.766Z,97531.41
2022-09-04T23:09:24.911Z,97542.16
2022-09-04T23:13:56.886Z,97541.84
2022-09-04T23:16:32.111Z,97534.13
2022-09-04T23:26:33.528Z,97536.25
2022-09-04T23:26:48.840Z,97541.66
2022-09-04T23:30:25.698Z,97540.31
2022-09-04T23:35:14.865Z,97515.34
2022-09-04T23:39:46.587Z,97510.28
2022-09-04T23:44:15.536Z,97526.69
2022-09-04T23:48:44.007Z,97529.91
2022-09-04T23:53:18.001Z,97522.38
2022-09-04T23:57:46.664Z,97517.03
